Academy, New Jersey
Current Conditions -  °F | °C
As of 8:51 PM on Thursday 27 Nov 2014 (Local Time) from KEWR Reporting Station
Overcast Overcast  
Wind Chill: -2°   Ceiling: 4000
Heat Index:   Visibility: 10mi
Dew Point: -3°   Wind: 13mph
Humidity: 67%   Direction: 300°WNW
Pressure: 30.06"   Gusts: NA
Location:  40.7334°N, 74.1735°W
Report Text: KEWR 280151Z 30011KT 10SM SCT029 OVC040 02/M03 A3006 RMK AO2 SLP179 T00221033 $
Loading
Personal Weather Stations






























Interactive Weather Map New forecast layout! Learn more

10-Day Weather Forecast

Advertisements
Track Severe Weather on mobile